Winston, MT

3:26 PM MDT on October 01, 2014 (GMT -0600)
CDG - Canyon Ferry Lake | Change Station
CLOSE
Current Station
Personal Weather Station
Location: Helena, MT
Elevation: 3848 ft
Nearby Weather Stations

Elev 3848 ft 46.59 °N, 111.69 °W | Updated 1 minute ago

Partly Cloudy
Partly Cloudy
53.8 °F
Feels Like 53.8 °F
N
1.0
Wind Variable Wind from SSW
Gusts 2.0 mph

Today
High -- | Low -- °F
--% Chance of Precip.
Yesterday
High -- | Low -- °F
Precip. -- in
7:25 AM 7:06 PM
Waxing Crescent, 51% visible
Pressure 29.78 in
Visibility 10.0 miles
Clouds Mostly Cloudy 6000 ft
Dew Point 31 °F
Humidity 41%
Rainfall 0.05 in
Snow Depth 0 in , 0 in , 0 in
UV 2 out of 12
Pollen 3.40 out of 12
Air Quality Not available.
Flu Activity Not available.
METAR KHLN 302053Z 29017G26KT 10SM BKN060 14/03 A2978 RMK AO2 PK WND 30026/2046 SLP085 T01440028 58004

More Conditions Fewer Conditions

Pressure 29.78 in
Visibility 10.0 miles
Clouds Mostly Cloudy 6000 ft
Dew Point 31 °F
Humidity 41%
Rainfall 0.05 in
Snow Depth 0 in , 0 in , 0 in
UV 2 out of 12
Pollen 3.40 out of 12
Air Quality Not available.
Flu Activity Not available.
METAR KHLN 302053Z 29017G26KT 10SM BKN060 14/03 A2978 RMK AO2 PK WND 30026/2046 SLP085 T01440028 58004

More Conditions Fewer Conditions

10-Day Weather Forecast

Almanac

Astronomy

Oct. 01, 2014 Rise Set
Actual Time 7:25 AM MDT 7:06 PM MDT
Civil Twilight 6:55 AM MDT 7:36 PM MDT
Nautical Twilight 6:20 AM MDT 8:11 PM MDT
Astronomical Twilight 5:44 AM MDT 8:46 PM MDT
Moon 2:43 PM MDT No Moon Set
Length of Visible Light 12h 41m
Length of Day
11h 41m
Tomorrow will be 3m 14s shorter.
Waxing Crescent, 51% of the Moon is Illuminated
Today
Waxing Crescent
Oct 8
Full
Oct 15
Last Quarter
Oct 23
New
Oct 30
First Quarter

Today's Extremes

State Highs State Lows

Community

WunderPhotos

Upload Photos

1,758,058 photos uploaded!

WunderBlogs® & News

By Dr. Jeff Masters
Director of Meteorology, Weather Underground
By Kari Strenfel
Meteorologist, Weather Underground
By Christopher C. Burt
Weather Historian, Weather Underground
October 1, 2014
October 1, 2014
October 1, 2014

Nearby

Snow Depth

Station Depth Elevation
Porcupine 0 in 6500 ft
Burnt Mountain 0 in 5880 ft
Beaver Creek 0 in 7850 ft
Brackett Creek 1 in 7320 ft
Black Pine 1 in 7210 ft

Earthquake Activity

City Distance Mag. Time & Date
No recent earthquake activity has been reported nearby.
Minimum magnitude displayed is 2.5.

Coastal Water Temperatures

Place Temperature
No Stations Reporting

Nearby Weather Stations